sensor_id;sensor_type;location;lat;lon;timestamp;temperature;humidity
5972;DHT22;3012;49.944;8.454;2023-12-07T00:00:35;2.10;99.90
5972;DHT22;3012;49.944;8.454;2023-12-07T00:03:03;1.90;99.90
5972;DHT22;3012;49.944;8.454;2023-12-07T00:05:35;2.60;99.90
5972;DHT22;3012;49.944;8.454;2023-12-07T00:08:04;2.70;99.90
5972;DHT22;3012;49.944;8.454;2023-12-07T00:10:32;2.50;99.90
5972;DHT22;3012;49.944;8.454;2023-12-07T00:13:00;1.90;99.90
5972;DHT22;3012;49.944;8.454;2023-12-07T00:15:27;2.50;99.90
5972;DHT22;3012;49.944;8.454;2023-12-07T00:17:56;2.60;99.90
5972;DHT22;3012;49.944;8.454;2023-12-07T00:20:24;2.90;99.90
5972;DHT22;3012;49.944;8.454;2023-12-07T00:22:53;1.80;99.90
5972;DHT22;3012;49.944;8.454;2023-12-07T00:25:22;2.60;99.90
5972;DHT22;3012;49.944;8.454;2023-12-07T00:27:50;2.00;99.90
5972;DHT22;3012;49.944;8.454;2023-12-07T00:30:19;2.20;99.90
5972;DHT22;3012;49.944;8.454;2023-12-07T00:32:47;1.90;99.90
5972;DHT22;3012;49.944;8.454;2023-12-07T00:35:16;1.90;99.90
5972;DHT22;3012;49.944;8.454;2023-12-07T00:37:44;2.40;99.90
5972;DHT22;3012;49.944;8.454;2023-12-07T00:40:13;1.60;99.90
5972;DHT22;3012;49.944;8.454;2023-12-07T00:42:42;1.60;99.90
5972;DHT22;3012;49.944;8.454;2023-12-07T00:45:11;2.30;99.90
5972;DHT22;3012;49.944;8.454;2023-12-07T00:47:40;2.20;99.90
5972;DHT22;3012;49.944;8.454;2023-12-07T00:50:11;1.70;99.90
5972;DHT22;3012;49.944;8.454;2023-12-07T00:52:40;2.00;99.90
5972;DHT22;3012;49.944;8.454;2023-12-07T00:55:08;2.20;99.90
5972;DHT22;3012;49.944;8.454;2023-12-07T00:57:40;1.70;99.90
5972;DHT22;3012;49.944;8.454;2023-12-07T01:00:09;1.70;99.90
5972;DHT22;3012;49.944;8.454;2023-12-07T01:02:37;2.00;99.90
5972;DHT22;3012;49.944;8.454;2023-12-07T01:05:05;1.60;99.90
5972;DHT22;3012;49.944;8.454;2023-12-07T01:07:35;2.20;99.90
5972;DHT22;3012;49.944;8.454;2023-12-07T01:10:04;2.10;99.90
5972;DHT22;3012;49.944;8.454;2023-12-07T01:12:32;2.00;99.90
5972;DHT22;3012;49.944;8.454;2023-12-07T01:15:04;1.50;99.90
5972;DHT22;3012;49.944;8.454;2023-12-07T01:17:33;2.20;99.90
5972;DHT22;3012;49.944;8.454;2023-12-07T01:20:01;1.50;99.90
5972;DHT22;3012;49.944;8.454;2023-12-07T01:22:34;1.50;99.90
5972;DHT22;3012;49.944;8.454;2023-12-07T01:25:02;1.80;99.90
5972;DHT22;3012;49.944;8.454;2023-12-07T01:27:30;2.20;99.90
5972;DHT22;3012;49.944;8.454;2023-12-07T01:29:58;2.00;99.90
5972;DHT22;3012;49.944;8.454;2023-12-07T01:32:28;1.90;99.90
5972;DHT22;3012;49.944;8.454;2023-12-07T01:34:55;2.10;99.90
5972;DHT22;3012;49.944;8.454;2023-12-07T01:37:24;1.50;99.90
5972;DHT22;3012;49.944;8.454;2023-12-07T01:39:54;1.90;99.90
5972;DHT22;3012;49.944;8.454;2023-12-07T01:42:22;1.30;99.90
5972;DHT22;3012;49.944;8.454;2023-12-07T01:44:50;1.20;99.90
5972;DHT22;3012;49.944;8.454;2023-12-07T01:47:18;1.90;99.90
5972;DHT22;3012;49.944;8.454;2023-12-07T01:49:48;1.40;99.90
5972;DHT22;3012;49.944;8.454;2023-12-07T01:52:17;1.90;99.90
5972;DHT22;3012;49.944;8.454;2023-12-07T01:54:46;1.20;99.90
5972;DHT22;3012;49.944;8.454;2023-12-07T01:57:15;1.70;99.90
5972;DHT22;3012;49.944;8.454;2023-12-07T01:59:43;1.70;99.90
5972;DHT22;3012;49.944;8.454;2023-12-07T02:02:12;1.20;99.90
5972;DHT22;3012;49.944;8.454;2023-12-07T02:04:40;1.20;99.90
5972;DHT22;3012;49.944;8.454;2023-12-07T02:07:10;1.10;99.90
5972;DHT22;3012;49.944;8.454;2023-12-07T02:09:39;1.20;99.90
5972;DHT22;3012;49.944;8.454;2023-12-07T02:12:07;1.70;99.90
5972;DHT22;3012;49.944;8.454;2023-12-07T02:14:36;1.40;99.90
5972;DHT22;3012;49.944;8.454;2023-12-07T02:17:10;1.60;99.90
5972;DHT22;3012;49.944;8.454;2023-12-07T02:19:56;1.00;99.90
5972;DHT22;3012;49.944;8.454;2023-12-07T02:22:32;1.00;99.90
5972;DHT22;3012;49.944;8.454;2023-12-07T02:25:07;1.50;99.90
5972;DHT22;3012;49.944;8.454;2023-12-07T02:27:38;1.50;99.90
5972;DHT22;3012;49.944;8.454;2023-12-07T02:30:08;1.00;99.90
5972;DHT22;3012;49.944;8.454;2023-12-07T02:32:37;1.50;99.90
5972;DHT22;3012;49.944;8.454;2023-12-07T02:35:06;0.90;99.90
5972;DHT22;3012;49.944;8.454;2023-12-07T02:37:40;1.60;99.90
5972;DHT22;3012;49.944;8.454;2023-12-07T02:40:09;1.50;99.90
5972;DHT22;3012;49.944;8.454;2023-12-07T02:42:39;1.40;99.90
5972;DHT22;3012;49.944;8.454;2023-12-07T02:45:10;1.00;99.90
5972;DHT22;3012;49.944;8.454;2023-12-07T02:47:38;1.30;99.90
5972;DHT22;3012;49.944;8.454;2023-12-07T02:50:07;0.80;99.90
5972;DHT22;3012;49.944;8.454;2023-12-07T02:52:36;1.20;99.90
5972;DHT22;3012;49.944;8.454;2023-12-07T02:55:05;1.40;99.90
5972;DHT22;3012;49.944;8.454;2023-12-07T02:57:33;1.60;99.90
5972;DHT22;3012;49.944;8.454;2023-12-07T03:00:03;1.30;99.90
5972;DHT22;3012;49.944;8.454;2023-12-07T03:02:33;1.50;99.90
5972;DHT22;3012;49.944;8.454;2023-12-07T03:05:02;1.50;99.90
5972;DHT22;3012;49.944;8.454;2023-12-07T03:11:02;1.30;99.90
5972;DHT22;3012;49.944;8.454;2023-12-07T03:13:30;1.40;99.90
5972;DHT22;3012;49.944;8.454;2023-12-07T03:16:00;1.50;99.90
5972;DHT22;3012;49.944;8.454;2023-12-07T03:18:28;0.80;99.90
5972;DHT22;3012;49.944;8.454;2023-12-07T03:20:55;1.40;99.90
5972;DHT22;3012;49.944;8.454;2023-12-07T03:23:23;0.90;99.90
5972;DHT22;3012;49.944;8.454;2023-12-07T03:25:51;1.50;99.90
5972;DHT22;3012;49.944;8.454;2023-12-07T03:28:19;0.80;99.90
5972;DHT22;3012;49.944;8.454;2023-12-07T03:30:47;0.70;99.90
5972;DHT22;3012;49.944;8.454;2023-12-07T03:33:16;0.60;99.90
5972;DHT22;3012;49.944;8.454;2023-12-07T03:35:44;1.10;99.90
5972;DHT22;3012;49.944;8.454;2023-12-07T03:38:13;1.40;99.90
5972;DHT22;3012;49.944;8.454;2023-12-07T03:40:40;1.20;99.90
5972;DHT22;3012;49.944;8.454;2023-12-07T03:43:08;1.10;99.90
5972;DHT22;3012;49.944;8.454;2023-12-07T03:45:35;0.80;99.90
5972;DHT22;3012;49.944;8.454;2023-12-07T03:48:04;1.50;99.90
5972;DHT22;3012;49.944;8.454;2023-12-07T03:50:34;1.30;99.90
5972;DHT22;3012;49.944;8.454;2023-12-07T03:53:02;1.20;99.90
5972;DHT22;3012;49.944;8.454;2023-12-07T03:55:30;0.60;99.90
5972;DHT22;3012;49.944;8.454;2023-12-07T03:57:58;1.10;99.90
5972;DHT22;3012;49.944;8.454;2023-12-07T04:00:26;0.90;99.90
5972;DHT22;3012;49.944;8.454;2023-12-07T04:02:54;1.10;99.90
5972;DHT22;3012;49.944;8.454;2023-12-07T04:05:22;0.40;99.90
5972;DHT22;3012;49.944;8.454;2023-12-07T04:07:51;0.70;99.90
5972;DHT22;3012;49.944;8.454;2023-12-07T04:10:19;1.10;99.90
5972;DHT22;3012;49.944;8.454;2023-12-07T04:12:47;1.20;99.90
5972;DHT22;3012;49.944;8.454;2023-12-07T04:15:15;1.10;99.90
5972;DHT22;3012;49.944;8.454;2023-12-07T04:17:45;0.80;99.90
5972;DHT22;3012;49.944;8.454;2023-12-07T04:20:13;1.30;99.90
5972;DHT22;3012;49.944;8.454;2023-12-07T04:22:41;0.60;99.90
5972;DHT22;3012;49.944;8.454;2023-12-07T04:25:11;1.10;99.90
5972;DHT22;3012;49.944;8.454;2023-12-07T04:27:39;1.10;99.90
5972;DHT22;3012;49.944;8.454;2023-12-07T04:30:08;1.00;99.90
5972;DHT22;3012;49.944;8.454;2023-12-07T04:32:36;1.10;99.90
5972;DHT22;3012;49.944;8.454;2023-12-07T04:35:06;1.20;99.90
5972;DHT22;3012;49.944;8.454;2023-12-07T04:37:35;0.90;99.90
5972;DHT22;3012;49.944;8.454;2023-12-07T04:40:04;0.80;99.90
5972;DHT22;3012;49.944;8.454;2023-12-07T04:42:34;1.10;99.90
5972;DHT22;3012;49.944;8.454;2023-12-07T04:45:02;1.00;99.90
5972;DHT22;3012;49.944;8.454;2023-12-07T04:47:32;0.80;99.90
5972;DHT22;3012;49.944;8.454;2023-12-07T04:50:00;0.70;99.90
5972;DHT22;3012;49.944;8.454;2023-12-07T04:52:28;0.90;99.90
5972;DHT22;3012;49.944;8.454;2023-12-07T04:54:57;0.70;99.90
5972;DHT22;3012;49.944;8.454;2023-12-07T04:57:25;0.80;99.90
5972;DHT22;3012;49.944;8.454;2023-12-07T04:59:55;0.20;99.90
5972;DHT22;3012;49.944;8.454;2023-12-07T05:02:22;1.00;99.90
5972;DHT22;3012;49.944;8.454;2023-12-07T05:04:51;0.40;99.90
5972;DHT22;3012;49.944;8.454;2023-12-07T05:07:20;0.40;99.90
5972;DHT22;3012;49.944;8.454;2023-12-07T05:09:48;0.90;99.90
5972;DHT22;3012;49.944;8.454;2023-12-07T05:12:17;0.70;99.90
5972;DHT22;3012;49.944;8.454;2023-12-07T05:14:45;0.40;99.90
5972;DHT22;3012;49.944;8.454;2023-12-07T05:17:15;0.60;99.90
5972;DHT22;3012;49.944;8.454;2023-12-07T05:19:44;0.30;99.90
5972;DHT22;3012;49.944;8.454;2023-12-07T05:22:14;0.30;99.90
5972;DHT22;3012;49.944;8.454;2023-12-07T05:24:42;0.80;99.90
5972;DHT22;3012;49.944;8.454;2023-12-07T05:27:10;0.90;99.90
5972;DHT22;3012;49.944;8.454;2023-12-07T05:29:38;0.80;99.90
5972;DHT22;3012;49.944;8.454;2023-12-07T05:32:07;0.70;99.90
5972;DHT22;3012;49.944;8.454;2023-12-07T05:34:36;0.90;99.90
5972;DHT22;3012;49.944;8.454;2023-12-07T05:37:04;0.90;99.90
5972;DHT22;3012;49.944;8.454;2023-12-07T05:39:32;0.20;99.90
5972;DHT22;3012;49.944;8.454;2023-12-07T05:42:00;0.20;99.90
5972;DHT22;3012;49.944;8.454;2023-12-07T05:44:30;0.20;99.90
5972;DHT22;3012;49.944;8.454;2023-12-07T05:46:58;0.30;99.90
5972;DHT22;3012;49.944;8.454;2023-12-07T05:49:26;0.90;99.90
5972;DHT22;3012;49.944;8.454;2023-12-07T05:51:56;1.10;99.90
5972;DHT22;3012;49.944;8.454;2023-12-07T05:54:24;0.70;99.90
5972;DHT22;3012;49.944;8.454;2023-12-07T05:56:52;0.60;99.90
5972;DHT22;3012;49.944;8.454;2023-12-07T18:56:35;1.00;99.90
5972;DHT22;3012;49.944;8.454;2023-12-07T18:59:04;1.10;99.90
5972;DHT22;3012;49.944;8.454;2023-12-07T19:01:33;0.80;99.90
5972;DHT22;3012;49.944;8.454;2023-12-07T19:04:01;1.10;99.90
5972;DHT22;3012;49.944;8.454;2023-12-07T19:06:29;0.70;99.90
5972;DHT22;3012;49.944;8.454;2023-12-07T19:08:57;0.40;99.90
5972;DHT22;3012;49.944;8.454;2023-12-07T19:11:26;0.80;99.90
5972;DHT22;3012;49.944;8.454;2023-12-07T19:13:55;1.00;99.90
5972;DHT22;3012;49.944;8.454;2023-12-07T19:16:23;1.00;99.90
5972;DHT22;3012;49.944;8.454;2023-12-07T19:18:51;1.00;99.90
5972;DHT22;3012;49.944;8.454;2023-12-07T19:21:19;0.90;99.90
5972;DHT22;3012;49.944;8.454;2023-12-07T19:23:47;0.70;99.90
5972;DHT22;3012;49.944;8.454;2023-12-07T19:26:17;0.30;99.90
5972;DHT22;3012;49.944;8.454;2023-12-07T19:28:46;0.80;99.90
5972;DHT22;3012;49.944;8.454;2023-12-07T19:31:16;0.80;99.90
5972;DHT22;3012;49.944;8.454;2023-12-07T19:33:45;0.40;99.90
5972;DHT22;3012;49.944;8.454;2023-12-07T19:36:13;1.00;99.90
5972;DHT22;3012;49.944;8.454;2023-12-07T19:38:41;0.90;99.90
5972;DHT22;3012;49.944;8.454;2023-12-07T19:41:09;0.20;99.90
5972;DHT22;3012;49.944;8.454;2023-12-07T19:43:38;0.80;99.90
5972;DHT22;3012;49.944;8.454;2023-12-07T19:46:06;0.90;99.90
5972;DHT22;3012;49.944;8.454;2023-12-07T19:48:35;0.30;99.90
5972;DHT22;3012;49.944;8.454;2023-12-07T19:51:04;0.50;99.90
5972;DHT22;3012;49.944;8.454;2023-12-07T19:53:32;0.90;99.90
5972;DHT22;3012;49.944;8.454;2023-12-07T19:56:01;0.90;99.90
5972;DHT22;3012;49.944;8.454;2023-12-07T19:58:29;1.20;99.90
5972;DHT22;3012;49.944;8.454;2023-12-07T20:00:57;0.90;99.90
5972;DHT22;3012;49.944;8.454;2023-12-07T20:03:25;1.50;99.90
5972;DHT22;3012;49.944;8.454;2023-12-07T20:05:55;1.10;99.90
5972;DHT22;3012;49.944;8.454;2023-12-07T20:08:23;1.20;99.90
5972;DHT22;3012;49.944;8.454;2023-12-07T20:10:51;1.20;99.90
5972;DHT22;3012;49.944;8.454;2023-12-07T20:13:18;0.80;99.90
5972;DHT22;3012;49.944;8.454;2023-12-07T20:15:47;1.10;99.90
5972;DHT22;3012;49.944;8.454;2023-12-07T20:18:15;0.40;99.90
5972;DHT22;3012;49.944;8.454;2023-12-07T20:20:44;1.00;99.90
5972;DHT22;3012;49.944;8.454;2023-12-07T20:23:13;1.10;99.90
5972;DHT22;3012;49.944;8.454;2023-12-07T20:25:41;0.60;99.90
5972;DHT22;3012;49.944;8.454;2023-12-07T20:28:09;1.00;99.90
5972;DHT22;3012;49.944;8.454;2023-12-07T20:30:37;0.90;99.90
5972;DHT22;3012;49.944;8.454;2023-12-07T20:33:05;1.10;99.90
5972;DHT22;3012;49.944;8.454;2023-12-07T20:35:34;0.90;99.90
5972;DHT22;3012;49.944;8.454;2023-12-07T20:38:02;0.90;99.90
5972;DHT22;3012;49.944;8.454;2023-12-07T20:40:31;1.00;99.90
5972;DHT22;3012;49.944;8.454;2023-12-07T20:42:59;1.10;99.90
5972;DHT22;3012;49.944;8.454;2023-12-07T20:45:27;0.80;99.90
5972;DHT22;3012;49.944;8.454;2023-12-07T20:47:55;0.70;99.90
5972;DHT22;3012;49.944;8.454;2023-12-07T20:50:23;0.40;99.90
5972;DHT22;3012;49.944;8.454;2023-12-07T20:52:51;0.40;99.90
5972;DHT22;3012;49.944;8.454;2023-12-07T20:55:19;1.10;99.90
5972;DHT22;3012;49.944;8.454;2023-12-07T20:57:49;1.00;99.90
5972;DHT22;3012;49.944;8.454;2023-12-07T21:00:18;1.10;99.90
5972;DHT22;3012;49.944;8.454;2023-12-07T21:02:46;0.70;99.90
5972;DHT22;3012;49.944;8.454;2023-12-07T21:05:14;1.10;99.90
5972;DHT22;3012;49.944;8.454;2023-12-07T21:07:42;0.80;99.90
5972;DHT22;3012;49.944;8.454;2023-12-07T21:10:10;0.70;99.90
5972;DHT22;3012;49.944;8.454;2023-12-07T21:12:38;0.40;99.90
5972;DHT22;3012;49.944;8.454;2023-12-07T21:15:08;0.60;99.90
5972;DHT22;3012;49.944;8.454;2023-12-07T21:17:37;1.00;99.90
5972;DHT22;3012;49.944;8.454;2023-12-07T21:20:06;1.10;99.90
5972;DHT22;3012;49.944;8.454;2023-12-07T21:22:34;1.30;99.90
5972;DHT22;3012;49.944;8.454;2023-12-07T21:25:02;1.20;99.90
5972;DHT22;3012;49.944;8.454;2023-12-07T21:27:30;1.20;99.90
5972;DHT22;3012;49.944;8.454;2023-12-07T21:29:58;0.70;99.90
5972;DHT22;3012;49.944;8.454;2023-12-07T21:32:27;1.10;99.90
5972;DHT22;3012;49.944;8.454;2023-12-07T21:34:56;0.40;99.90
5972;DHT22;3012;49.944;8.454;2023-12-07T21:37:23;0.90;99.90
5972;DHT22;3012;49.944;8.454;2023-12-07T21:39:52;1.10;99.90
5972;DHT22;3012;49.944;8.454;2023-12-07T21:42:20;0.40;99.90
5972;DHT22;3012;49.944;8.454;2023-12-07T21:44:48;1.30;99.90
5972;DHT22;3012;49.944;8.454;2023-12-07T21:47:16;0.70;99.90
5972;DHT22;3012;49.944;8.454;2023-12-07T21:49:45;1.00;99.90
5972;DHT22;3012;49.944;8.454;2023-12-07T21:52:13;0.70;99.90
5972;DHT22;3012;49.944;8.454;2023-12-07T21:54:41;0.90;99.90
5972;DHT22;3012;49.944;8.454;2023-12-07T21:57:09;0.60;99.90
5972;DHT22;3012;49.944;8.454;2023-12-07T21:59:37;1.30;99.90
5972;DHT22;3012;49.944;8.454;2023-12-07T22:02:05;1.40;99.90
5972;DHT22;3012;49.944;8.454;2023-12-07T22:04:33;0.50;99.90
5972;DHT22;3012;49.944;8.454;2023-12-07T22:07:04;1.30;99.90
5972;DHT22;3012;49.944;8.454;2023-12-07T22:09:32;0.70;99.90
5972;DHT22;3012;49.944;8.454;2023-12-07T22:12:00;0.70;99.90
5972;DHT22;3012;49.944;8.454;2023-12-07T22:14:28;0.70;99.90
5972;DHT22;3012;49.944;8.454;2023-12-07T22:16:56;1.10;99.90
5972;DHT22;3012;49.944;8.454;2023-12-07T22:19:24;0.90;99.90
5972;DHT22;3012;49.944;8.454;2023-12-07T22:21:52;1.00;99.90
5972;DHT22;3012;49.944;8.454;2023-12-07T22:24:21;1.40;99.90
5972;DHT22;3012;49.944;8.454;2023-12-07T22:26:49;1.10;99.90
5972;DHT22;3012;49.944;8.454;2023-12-07T22:29:17;1.00;99.90
5972;DHT22;3012;49.944;8.454;2023-12-07T22:31:45;1.20;99.90
5972;DHT22;3012;49.944;8.454;2023-12-07T22:34:13;0.80;99.90
5972;DHT22;3012;49.944;8.454;2023-12-07T22:36:41;1.40;99.90
5972;DHT22;3012;49.944;8.454;2023-12-07T22:39:09;1.20;99.90
5972;DHT22;3012;49.944;8.454;2023-12-07T22:41:38;1.60;99.90
5972;DHT22;3012;49.944;8.454;2023-12-07T22:44:06;0.90;99.90
5972;DHT22;3012;49.944;8.454;2023-12-07T22:46:34;1.80;99.90
5972;DHT22;3012;49.944;8.454;2023-12-07T22:49:02;1.50;99.90
5972;DHT22;3012;49.944;8.454;2023-12-07T22:51:30;1.60;99.90
5972;DHT22;3012;49.944;8.454;2023-12-07T22:53:58;1.30;99.90
5972;DHT22;3012;49.944;8.454;2023-12-07T22:56:26;1.60;99.90
5972;DHT22;3012;49.944;8.454;2023-12-07T22:58:55;0.80;99.90
5972;DHT22;3012;49.944;8.454;2023-12-07T23:01:23;1.50;99.90
5972;DHT22;3012;49.944;8.454;2023-12-07T23:03:52;1.70;99.90
5972;DHT22;3012;49.944;8.454;2023-12-07T23:06:20;1.10;99.90
5972;DHT22;3012;49.944;8.454;2023-12-07T23:08:48;1.10;99.90
5972;DHT22;3012;49.944;8.454;2023-12-07T23:11:16;1.50;99.90
5972;DHT22;3012;49.944;8.454;2023-12-07T23:13:44;1.00;99.90
5972;DHT22;3012;49.944;8.454;2023-12-07T23:16:13;1.40;99.90
5972;DHT22;3012;49.944;8.454;2023-12-07T23:18:41;1.30;99.90
5972;DHT22;3012;49.944;8.454;2023-12-07T23:21:10;1.10;99.90
5972;DHT22;3012;49.944;8.454;2023-12-07T23:23:39;1.70;99.90
5972;DHT22;3012;49.944;8.454;2023-12-07T23:26:07;1.10;99.90
5972;DHT22;3012;49.944;8.454;2023-12-07T23:28:36;1.70;99.90
5972;DHT22;3012;49.944;8.454;2023-12-07T23:31:04;1.20;99.90
5972;DHT22;3012;49.944;8.454;2023-12-07T23:33:33;1.60;99.90
5972;DHT22;3012;49.944;8.454;2023-12-07T23:36:01;1.50;99.90
5972;DHT22;3012;49.944;8.454;2023-12-07T23:38:30;1.70;99.90
5972;DHT22;3012;49.944;8.454;2023-12-07T23:40:58;1.50;99.90
5972;DHT22;3012;49.944;8.454;2023-12-07T23:43:26;1.80;99.90
5972;DHT22;3012;49.944;8.454;2023-12-07T23:45:54;1.40;99.90
5972;DHT22;3012;49.944;8.454;2023-12-07T23:48:22;1.80;99.90
5972;DHT22;3012;49.944;8.454;2023-12-07T23:50:52;1.70;99.90
5972;DHT22;3012;49.944;8.454;2023-12-07T23:53:19;1.80;99.90
5972;DHT22;3012;49.944;8.454;2023-12-07T23:55:47;1.20;99.90
5972;DHT22;3012;49.944;8.454;2023-12-07T23:58:16;1.20;99.90
